Time;durP1;ratioP1;P1;durP2;ratioP2;P2;SDS_P1;SDS_P2;PMS_P1;PMS_P2;Temp;Humidity;BMP_temperature;BMP_pressure;BME280_temperature;BME280_humidity;BME280_pressure;Samples;Min_cycle;Max_cycle;Signal;HPM_P1;HPM_P2
2024/04/09 00:00:21;;;;;;;14.52;3.50;;;13.60;99.90;;;;;;5366163;26;20008;-34
2024/04/09 00:02:47;;;;;;;10.80;2.83;;;13.70;99.90;;;;;;5362993;26;20342;-37
2024/04/09 00:05:13;;;;;;;8.43;3.22;;;13.70;99.90;;;;;;5355663;26;20016;-36
2024/04/09 00:07:39;;;;;;;12.73;3.65;;;13.60;99.90;;;;;;5365678;26;20008;-34
2024/04/09 00:10:06;;;;;;;12.20;3.67;;;13.40;99.90;;;;;;5362276;26;20004;-34
2024/04/09 00:12:38;;;;;;;16.42;3.55;;;13.30;99.90;;;;;;5362615;26;20004;-36
2024/04/09 00:15:07;;;;;;;10.05;3.25;;;13.20;99.90;;;;;;5364336;26;20003;-34
2024/04/09 00:17:44;;;;;;;14.18;3.45;;;13.10;99.90;;;;;;5363407;26;20035;-33
2024/04/09 00:20:17;;;;;;;15.90;3.13;;;13.20;99.90;;;;;;5362162;26;19992;-35
2024/04/09 00:22:45;;;;;;;13.77;3.58;;;13.30;99.90;;;;;;5364289;26;19992;-36
2024/04/09 00:25:12;;;;;;;15.30;3.40;;;13.20;99.90;;;;;;5356737;26;20466;-37
2024/04/09 00:27:39;;;;;;;14.82;3.70;;;13.20;99.90;;;;;;5359101;26;20230;-34
2024/04/09 00:30:06;;;;;;;15.13;4.03;;;13.20;99.90;;;;;;5365064;26;20000;-42
2024/04/09 00:32:32;;;;;;;17.15;3.97;;;13.20;99.90;;;;;;5363286;26;20294;-41
2024/04/09 00:34:58;;;;;;;11.00;3.42;;;12.90;99.90;;;;;;5361218;26;20004;-42
2024/04/09 00:37:24;;;;;;;5.85;2.70;;;12.70;99.90;;;;;;5358126;26;20011;-41
2024/04/09 00:39:49;;;;;;;10.70;3.60;;;12.40;99.90;;;;;;5362206;26;20330;-42
2024/04/09 00:42:15;;;;;;;13.05;3.63;;;12.20;99.90;;;;;;5364735;26;20004;-42
2024/04/09 00:44:41;;;;;;;9.73;3.30;;;12.00;99.90;;;;;;5359323;26;20093;-39
2024/04/09 00:47:16;;;;;;;13.10;3.33;;;12.10;99.90;;;;;;5373475;26;20015;-40
2024/04/09 00:49:44;;;;;;;16.17;3.78;;;12.20;99.90;;;;;;5366415;26;20066;-37
2024/04/09 00:52:12;;;;;;;17.63;3.63;;;12.40;99.90;;;;;;5364006;26;20058;-43
2024/04/09 00:54:38;;;;;;;16.13;3.92;;;12.60;99.90;;;;;;5362000;26;20001;-39
2024/04/09 00:57:05;;;;;;;13.15;3.55;;;12.70;99.90;;;;;;5372321;26;20001;-43
2024/04/09 00:59:32;;;;;;;15.60;3.55;;;12.70;99.90;;;;;;5363949;26;20007;-42
2024/04/09 01:02:00;;;;;;;17.90;4.28;;;12.80;99.90;;;;;;5361732;26;20095;-40
2024/04/09 01:04:25;;;;;;;14.40;4.40;;;12.80;99.90;;;;;;5363393;26;20015;-39
2024/04/09 01:06:51;;;;;;;19.38;3.10;;;12.70;99.90;;;;;;5362646;26;20438;-40
2024/04/09 01:09:17;;;;;;;18.10;3.38;;;12.60;99.90;;;;;;5357499;26;20850;-41
2024/04/09 01:11:43;;;;;;;15.75;3.42;;;12.40;99.90;;;;;;5368518;26;20006;-40
2024/04/09 01:14:08;;;;;;;9.27;3.45;;;12.20;99.90;;;;;;5363789;26;20005;-39
2024/04/09 01:16:34;;;;;;;9.88;3.58;;;11.80;99.90;;;;;;5363485;26;20330;-40
2024/04/09 01:19:00;;;;;;;7.72;3.10;;;12.00;99.90;;;;;;5360592;26;20007;-40
2024/04/09 01:21:25;;;;;;;12.18;3.38;;;12.10;99.90;;;;;;5363444;26;20511;-42
2024/04/09 01:23:53;;;;;;;13.75;3.60;;;12.20;99.90;;;;;;5360573;26;20008;-41
2024/04/09 01:26:18;;;;;;;12.85;3.35;;;12.30;99.90;;;;;;5363980;26;20015;-40
2024/04/09 01:28:46;;;;;;;10.25;3.35;;;12.40;99.90;;;;;;5367851;26;19996;-40
2024/04/09 01:31:15;;;;;;;5.40;2.92;;;12.50;99.90;;;;;;5361277;26;20351;-39
2024/04/09 01:33:42;;;;;;;12.50;3.70;;;12.60;99.90;;;;;;5361529;26;20901;-39
2024/04/09 01:36:10;;;;;;;10.13;3.72;;;12.50;99.90;;;;;;5360789;26;20000;-39
2024/04/09 01:38:36;;;;;;;12.38;3.00;;;12.40;99.90;;;;;;5370420;26;20702;-39
2024/04/09 01:41:01;;;;;;;10.77;3.33;;;12.50;99.90;;;;;;5376448;26;20007;-40
2024/04/09 01:43:27;;;;;;;9.50;3.45;;;12.40;99.90;;;;;;5358927;26;20479;-40
2024/04/09 01:45:52;;;;;;;10.38;3.70;;;12.40;99.90;;;;;;5362068;26;20462;-39
2024/04/09 01:48:18;;;;;;;9.23;3.42;;;12.50;99.90;;;;;;5359687;26;20004;-33
2024/04/09 01:50:44;;;;;;;16.63;4.65;;;12.40;99.90;;;;;;5363606;26;20070;-35
2024/04/09 01:53:10;;;;;;;11.30;3.58;;;12.40;99.90;;;;;;5364743;26;20012;-40
2024/04/09 01:55:36;;;;;;;15.85;3.65;;;12.40;99.90;;;;;;5362477;26;20083;-34
2024/04/09 01:58:04;;;;;;;11.50;3.83;;;12.40;99.90;;;;;;5361005;26;20842;-33
2024/04/09 02:00:30;;;;;;;9.38;3.67;;;12.50;99.90;;;;;;5361902;26;20883;-32
2024/04/09 02:02:56;;;;;;;10.10;4.55;;;12.50;99.90;;;;;;5363276;26;20546;-32
2024/04/09 02:05:22;;;;;;;13.23;3.92;;;12.50;99.90;;;;;;5359765;26;20024;-38
2024/04/09 02:07:48;;;;;;;11.40;3.45;;;12.60;99.90;;;;;;5363292;26;20063;-34
2024/04/09 02:10:15;;;;;;;12.15;3.63;;;12.50;99.90;;;;;;5367754;26;20019;-40
2024/04/09 02:12:40;;;;;;;14.50;4.38;;;12.40;99.90;;;;;;5371354;26;20070;-39
2024/04/09 02:15:07;;;;;;;15.60;3.67;;;12.20;99.90;;;;;;5368133;26;20118;-42
2024/04/09 02:17:33;;;;;;;10.60;4.00;;;12.30;99.90;;;;;;5361944;26;20099;-42
2024/04/09 02:19:58;;;;;;;15.25;3.70;;;12.10;99.90;;;;;;5365434;26;20012;-35
2024/04/09 02:22:24;;;;;;;8.93;3.50;;;11.70;99.90;;;;;;5365404;26;20761;-37
2024/04/09 02:24:51;;;;;;;16.80;3.67;;;11.50;99.90;;;;;;5366340;26;20465;-34
2024/04/09 02:27:16;;;;;;;6.65;3.10;;;11.50;99.90;;;;;;5362869;26;20001;-34
2024/04/09 02:29:42;;;;;;;12.77;3.50;;;11.60;99.90;;;;;;5365783;26;20023;-36
2024/04/09 02:32:10;;;;;;;9.30;3.13;;;11.70;99.90;;;;;;5364663;26;20037;-39
2024/04/09 02:34:36;;;;;;;10.88;3.65;;;11.80;99.90;;;;;;5360808;26;20012;-38
2024/04/09 02:37:05;;;;;;;10.65;3.28;;;11.60;99.90;;;;;;5364336;26;20016;-34
2024/04/09 02:39:31;;;;;;;17.48;4.25;;;11.50;99.90;;;;;;5364727;26;20032;-33
2024/04/09 02:41:57;;;;;;;13.45;4.18;;;11.20;99.90;;;;;;5363012;26;20093;-36
2024/04/09 02:44:23;;;;;;;10.43;4.05;;;11.20;99.90;;;;;;5366757;26;20036;-36
2024/04/09 02:46:52;;;;;;;9.10;3.70;;;11.20;99.90;;;;;;5363009;26;20099;-33
2024/04/09 02:49:17;;;;;;;11.10;3.17;;;11.30;99.90;;;;;;5367127;26;20000;-35
2024/04/09 02:51:43;;;;;;;9.68;3.10;;;11.50;99.90;;;;;;5361072;26;20485;-36
2024/04/09 02:54:12;;;;;;;12.00;4.18;;;11.60;99.90;;;;;;5367868;26;20010;-36
2024/04/09 02:56:37;;;;;;;10.75;3.40;;;11.70;99.90;;;;;;5365190;26;20008;-39
2024/04/09 02:59:03;;;;;;;11.80;3.67;;;11.70;99.90;;;;;;5372519;26;20488;-42
2024/04/09 03:01:29;;;;;;;11.95;4.07;;;11.70;99.90;;;;;;5365932;26;20004;-42
2024/04/09 03:03:55;;;;;;;14.30;3.40;;;11.70;99.90;;;;;;5369820;26;20018;-41
2024/04/09 03:06:21;;;;;;;10.52;4.18;;;11.40;99.90;;;;;;5364628;26;20008;-38
2024/04/09 03:08:48;;;;;;;8.63;4.35;;;11.60;99.90;;;;;;5388815;26;20004;-40
2024/04/09 03:11:17;;;;;;;15.50;3.80;;;11.50;99.90;;;;;;5366551;26;20000;-40
2024/04/09 03:13:45;;;;;;;;;;;11.50;99.90;;;;;;5362642;26;20000;-40
2024/04/09 03:16:21;;;;;;;11.23;3.13;;;11.50;99.90;;;;;;5366172;26;19933;-42
2024/04/09 03:18:53;;;;;;;11.18;3.55;;;11.50;99.90;;;;;;5355778;26;20008;-40
2024/04/09 03:21:19;;;;;;;9.93;3.22;;;11.60;99.90;;;;;;5361236;26;20004;-39
2024/04/09 03:23:44;;;;;;;9.43;3.22;;;11.60;99.90;;;;;;5364588;26;20393;-40
2024/04/09 03:26:12;;;;;;;12.15;3.33;;;11.50;99.90;;;;;;5361967;26;20015;-42
2024/04/09 03:28:40;;;;;;;12.35;3.80;;;11.60;99.90;;;;;;5357867;26;20677;-35
2024/04/09 03:31:07;;;;;;;7.18;3.28;;;11.50;99.90;;;;;;5363845;26;20028;-33
2024/04/09 03:33:33;;;;;;;12.77;3.00;;;11.50;99.90;;;;;;5365939;26;20869;-35
2024/04/09 03:36:00;;;;;;;11.95;3.20;;;11.60;99.90;;;;;;5369096;26;20063;-33
2024/04/09 03:38:27;;;;;;;16.50;3.60;;;11.50;99.90;;;;;;5365529;26;20048;-34
2024/04/09 03:41:06;;;;;;;10.40;3.50;;;11.30;99.90;;;;;;5365479;26;20481;-33
2024/04/09 03:43:32;;;;;;;11.85;3.58;;;11.20;99.90;;;;;;5365044;26;20457;-36
2024/04/09 03:46:06;;;;;;;7.93;3.35;;;11.20;99.90;;;;;;5364559;26;20004;-33
2024/04/09 03:48:35;;;;;;;10.20;3.92;;;11.00;99.90;;;;;;5361619;26;20008;-34
2024/04/09 03:51:01;;;;;;;9.15;3.22;;;10.80;99.90;;;;;;5363426;26;20488;-35
2024/04/09 03:53:27;;;;;;;9.73;2.80;;;10.80;99.90;;;;;;5390825;26;21927;-33
2024/04/09 03:55:57;;;;;;;11.40;3.70;;;10.90;99.90;;;;;;5364009;26;20047;-33
2024/04/09 03:58:23;;;;;;;12.00;3.17;;;10.90;99.90;;;;;;5365186;26;20011;-38
2024/04/09 04:00:56;;;;;;;10.93;3.10;;;10.90;99.90;;;;;;5364150;26;20023;-35
2024/04/09 04:03:22;;;;;;;12.82;3.42;;;11.00;99.90;;;;;;5366359;26;20014;-39
2024/04/09 04:05:53;;;;;;;11.27;4.03;;;11.20;99.90;;;;;;5361058;26;20013;-34
2024/04/09 04:08:19;;;;;;;11.40;3.15;;;11.10;99.90;;;;;;5366854;26;20115;-41
2024/04/09 04:10:56;;;;;;;11.13;3.20;;;11.20;99.90;;;;;;5363032;26;20011;-40
2024/04/09 04:13:28;;;;;;;10.48;3.42;;;10.90;99.90;;;;;;5390790;26;20043;-38
2024/04/09 04:16:06;;;;;;;11.18;3.50;;;10.70;99.90;;;;;;5365767;26;20461;-40
2024/04/09 04:18:50;;;;;;;13.50;3.55;;;10.70;99.90;;;;;;5366281;26;20334;-39
2024/04/09 04:21:19;;;;;;;9.68;3.03;;;10.70;99.90;;;;;;5361530;26;19997;-39
2024/04/09 04:23:48;;;;;;;;;;;10.70;99.90;;;;;;5363738;26;20010;-42
2024/04/09 04:26:23;;;;;;;9.70;3.53;;;10.50;99.90;;;;;;5358163;26;20009;-41
2024/04/09 04:28:50;;;;;;;7.30;2.95;;;10.30;99.90;;;;;;5363330;26;20011;-43
2024/04/09 04:31:19;;;;;;;10.93;2.90;;;10.40;99.90;;;;;;5358648;26;20004;-42
2024/04/09 04:33:46;;;;;;;13.40;3.50;;;10.50;99.90;;;;;;5370270;26;20007;-41
2024/04/09 04:36:13;;;;;;;11.25;3.97;;;10.60;99.90;;;;;;5364371;26;20015;-40
2024/04/09 04:38:40;;;;;;;14.20;3.22;;;10.70;99.90;;;;;;5361334;26;20019;-42
2024/04/09 04:41:07;;;;;;;11.85;3.80;;;10.80;99.90;;;;;;5358760;26;19996;-35
2024/04/09 04:43:33;;;;;;;13.52;4.10;;;10.90;99.90;;;;;;5360800;26;20018;-38
2024/04/09 04:46:00;;;;;;;10.07;2.95;;;10.90;99.90;;;;;;5362504;26;19992;-35
2024/04/09 04:48:29;;;;;;;6.40;3.40;;;10.80;99.90;;;;;;5361222;26;20000;-37
2024/04/09 04:50:55;;;;;;;8.60;3.00;;;10.60;99.90;;;;;;5361524;26;20073;-34
2024/04/09 04:53:21;;;;;;;8.68;2.60;;;10.60;99.90;;;;;;5364071;26;20464;-37
2024/04/09 04:55:49;;;;;;;7.85;3.53;;;10.30;99.90;;;;;;5361283;26;20033;-33
2024/04/09 04:58:15;;;;;;;12.73;3.75;;;10.00;99.90;;;;;;5371399;26;20287;-37
2024/04/09 05:00:41;;;;;;;14.60;3.92;;;9.80;99.90;;;;;;5356023;26;20018;-35
2024/04/09 05:03:07;;;;;;;7.22;3.25;;;10.10;99.90;;;;;;5360173;26;19993;-34
2024/04/09 05:05:32;;;;;;;11.82;3.03;;;10.20;99.90;;;;;;5355217;26;20012;-37
2024/04/09 05:07:59;;;;;;;9.57;3.65;;;10.30;99.90;;;;;;5355912;26;20450;-34
2024/04/09 05:10:25;;;;;;;10.93;3.45;;;10.40;99.90;;;;;;5363531;26;20077;-39
2024/04/09 05:12:52;;;;;;;12.73;3.70;;;10.50;99.90;;;;;;5359362;26;20012;-37
2024/04/09 05:15:19;;;;;;;10.98;2.67;;;10.50;99.90;;;;;;5359689;26;20004;-37
2024/04/09 05:17:46;;;;;;;8.43;2.65;;;10.40;99.90;;;;;;5360779;26;20029;-34
2024/04/09 05:20:14;;;;;;;4.90;2.42;;;10.10;99.90;;;;;;5359511;26;20077;-35
2024/04/09 05:22:45;;;;;;;9.80;3.07;;;9.80;99.90;;;;;;5357839;26;20613;-38
2024/04/09 05:25:11;;;;;;;9.20;3.47;;;9.70;99.90;;;;;;5349073;26;20077;-37
2024/04/09 05:27:38;;;;;;;9.00;3.28;;;9.80;99.90;;;;;;5357252;26;20581;-34
2024/04/09 05:30:05;;;;;;;10.82;4.00;;;9.90;99.90;;;;;;5355822;26;20082;-36
2024/04/09 05:32:35;;;;;;;8.63;3.30;;;10.10;99.90;;;;;;5351539;26;20608;-34
2024/04/09 05:35:02;;;;;;;9.15;3.50;;;10.20;99.90;;;;;;5362586;26;20008;-34
2024/04/09 05:37:28;;;;;;;15.65;3.80;;;10.40;99.90;;;;;;5358215;26;20567;-35
2024/04/09 05:39:54;;;;;;;14.45;3.70;;;10.50;99.90;;;;;;5362114;26;20155;-36
2024/04/09 05:42:20;;;;;;;12.45;3.97;;;10.70;99.90;;;;;;5359852;26;20008;-34
2024/04/09 05:44:47;;;;;;;13.00;3.63;;;10.80;99.90;;;;;;5363623;26;20077;-37
2024/04/09 05:47:13;;;;;;;18.02;4.30;;;10.80;99.90;;;;;;5358490;26;20008;-36
2024/04/09 05:49:39;;;;;;;16.20;3.60;;;10.80;99.90;;;;;;5364006;26;20010;-40
2024/04/09 05:52:05;;;;;;;11.45;3.40;;;10.80;99.90;;;;;;5364806;26;20445;-36
2024/04/09 05:54:31;;;;;;;9.43;3.28;;;10.80;99.90;;;;;;5353955;26;20004;-35
2024/04/09 05:56:56;;;;;;;8.75;3.50;;;10.80;99.90;;;;;;5363796;26;20011;-37
2024/04/09 05:59:22;;;;;;;5.88;3.22;;;10.80;99.90;;;;;;5357493;26;20343;-38
2024/04/09 06:01:48;;;;;;;15.00;3.30;;;10.80;99.90;;;;;;5358880;26;20032;-35
2024/04/09 06:04:16;;;;;;;18.95;4.30;;;10.90;99.90;;;;;;5353877;26;19993;-35
2024/04/09 06:06:42;;;;;;;8.25;3.17;;;10.90;99.90;;;;;;5363466;26;20008;-34
2024/04/09 06:09:08;;;;;;;9.00;3.10;;;11.00;99.90;;;;;;5360647;26;20380;-35
2024/04/09 06:11:35;;;;;;;9.10;3.03;;;11.00;99.90;;;;;;5366623;26;20016;-36
2024/04/09 06:14:00;;;;;;;9.00;3.40;;;11.10;99.90;;;;;;5355932;26;20692;-34
2024/04/09 06:16:26;;;;;;;11.13;3.33;;;11.20;99.90;;;;;;5366123;26;20012;-33
2024/04/09 06:18:52;;;;;;;11.60;3.17;;;11.30;99.90;;;;;;5360140;26;20012;-35
2024/04/09 06:21:17;;;;;;;10.25;3.20;;;11.30;99.90;;;;;;5387305;26;20074;-36
2024/04/09 06:23:45;;;;;;;9.20;3.45;;;11.40;99.90;;;;;;5360914;26;20086;-37
2024/04/09 06:26:11;;;;;;;10.60;3.15;;;11.50;99.90;;;;;;5363877;26;20019;-33
2024/04/09 06:28:37;;;;;;;11.30;3.20;;;11.60;99.90;;;;;;5360236;26;20378;-36
2024/04/09 06:31:03;;;;;;;4.63;2.63;;;11.70;99.90;;;;;;5351258;26;20446;-38
2024/04/09 06:33:29;;;;;;;10.15;3.53;;;11.80;99.90;;;;;;5376315;26;20019;-34
2024/04/09 06:35:54;;;;;;;9.10;3.53;;;11.80;99.90;;;;;;5364191;26;20319;-35
2024/04/09 06:38:20;;;;;;;12.77;3.20;;;11.90;99.90;;;;;;5367132;26;20016;-36
2024/04/09 06:40:48;;;;;;;9.55;3.15;;;12.10;99.90;;;;;;5364134;26;20032;-42
2024/04/09 06:43:14;;;;;;;9.20;3.40;;;12.10;99.90;;;;;;5356046;26;20077;-40
2024/04/09 06:45:41;;;;;;;10.73;3.60;;;12.40;99.90;;;;;;5364536;26;20015;-40
2024/04/09 06:48:06;;;;;;;10.80;3.15;;;12.40;99.90;;;;;;5370479;26;20000;-36
2024/04/09 06:50:32;;;;;;;9.45;3.00;;;12.50;99.90;;;;;;5363273;26;20076;-34
2024/04/09 06:52:58;;;;;;;13.32;3.65;;;12.50;99.90;;;;;;5353216;26;20004;-37
2024/04/09 06:55:23;;;;;;;6.95;3.33;;;12.50;99.90;;;;;;5361781;26;20016;-33
2024/04/09 06:57:49;;;;;;;10.15;3.45;;;12.60;99.90;;;;;;5356006;26;20468;-34
2024/04/09 07:00:15;;;;;;;12.55;3.20;;;12.70;99.90;;;;;;5361804;26;20041;-34
2024/04/09 07:02:41;;;;;;;15.40;3.65;;;12.70;99.90;;;;;;5368553;26;19996;-36
2024/04/09 07:05:08;;;;;;;10.80;4.18;;;12.90;99.90;;;;;;5365020;26;20029;-35
2024/04/09 07:07:34;;;;;;;15.07;3.97;;;12.90;99.90;;;;;;5361282;26;20098;-34
2024/04/09 07:10:05;;;;;;;11.32;3.45;;;13.10;99.90;;;;;;5360408;26;20776;-34
2024/04/09 07:12:32;;;;;;;11.32;3.22;;;13.20;99.90;;;;;;5365079;26;20000;-35
2024/04/09 07:14:59;;;;;;;15.73;4.20;;;13.40;99.90;;;;;;5368547;26;19999;-33
2024/04/09 07:17:25;;;;;;;12.13;4.47;;;13.50;99.90;;;;;;5362517;26;20032;-35
2024/04/09 07:19:55;;;;;;;11.90;3.97;;;13.70;99.90;;;;;;5368361;26;20061;-33
2024/04/09 07:22:21;;;;;;;12.00;3.30;;;13.80;99.90;;;;;;5361572;26;20004;-39
2024/04/09 07:24:47;;;;;;;9.35;3.40;;;14.00;99.90;;;;;;5361122;26;20014;-34
2024/04/09 07:27:12;;;;;;;10.63;3.17;;;14.10;99.90;;;;;;5364758;26;20000;-33
2024/04/09 07:29:38;;;;;;;9.73;3.03;;;14.30;99.90;;;;;;5362731;26;20148;-36
2024/04/09 07:32:06;;;;;;;11.88;4.03;;;14.50;99.90;;;;;;5358490;26;20004;-35
2024/04/09 07:34:31;;;;;;;7.55;3.42;;;14.70;99.90;;;;;;5367124;26;20004;-36
2024/04/09 07:36:57;;;;;;;14.45;3.38;;;14.70;99.90;;;;;;5365570;26;20087;-37
2024/04/09 07:39:23;;;;;;;7.78;2.92;;;14.80;99.90;;;;;;5358245;26;20008;-35
2024/04/09 07:41:48;;;;;;;7.05;2.88;;;15.00;99.90;;;;;;5361963;26;20000;-37
2024/04/09 07:44:14;;;;;;;6.93;2.55;;;15.10;99.90;;;;;;5367927;26;20000;-36
2024/04/09 07:46:44;;;;;;;11.77;2.83;;;15.30;99.90;;;;;;5357088;26;20000;-39
2024/04/09 07:49:11;;;;;;;16.52;2.70;;;15.30;99.90;;;;;;5367710;26;20015;-34
2024/04/09 07:51:37;;;;;;;10.40;2.88;;;15.40;99.90;;;;;;5356490;26;20000;-35
2024/04/09 07:54:03;;;;;;;8.52;2.78;;;15.50;99.90;;;;;;5359927;26;19997;-36
2024/04/09 07:56:29;;;;;;;8.32;2.22;;;15.60;99.90;;;;;;5361285;26;20453;-33
2024/04/09 07:58:55;;;;;;;12.02;3.17;;;15.70;99.90;;;;;;5350401;26;20024;-33
2024/04/09 08:01:21;;;;;;;7.05;2.47;;;15.80;97.10;;;;;;5360015;26;20015;-36
2024/04/09 08:03:47;;;;;;;9.93;2.08;;;16.00;99.30;;;;;;5359979;26;20001;-36
2024/04/09 08:06:13;;;;;;;6.90;1.90;;;16.00;99.90;;;;;;5355704;26;20341;-34
2024/04/09 08:08:39;;;;;;;6.70;1.73;;;16.00;99.90;;;;;;5362580;26;19996;-40
2024/04/09 08:11:13;;;;;;;10.25;2.65;;;16.20;99.90;;;;;;5365819;26;20396;-38
2024/04/09 08:13:39;;;;;;;12.30;2.38;;;16.20;99.90;;;;;;5361452;26;20475;-40
2024/04/09 08:16:06;;;;;;;7.63;2.17;;;16.30;99.90;;;;;;5360750;26;20000;-39
2024/04/09 08:18:32;;;;;;;3.97;2.00;;;16.50;99.90;;;;;;5365349;26;20008;-39
2024/04/09 08:20:57;;;;;;;8.65;2.17;;;16.60;97.10;;;;;;5356699;26;20000;-39
2024/04/09 08:23:24;;;;;;;11.75;1.90;;;16.60;91.40;;;;;;5363897;26;20430;-41
2024/04/09 08:25:50;;;;;;;8.18;2.60;;;16.60;99.90;;;;;;5364551;26;19992;-41
2024/04/09 08:28:19;;;;;;;15.07;2.95;;;16.70;95.90;;;;;;5359736;26;20004;-41
2024/04/09 08:30:49;;;;;;;10.23;2.25;;;16.60;99.90;;;;;;5362424;26;20011;-41
2024/04/09 08:33:14;;;;;;;12.95;2.10;;;16.70;94.90;;;;;;5362501;26;20010;-40
2024/04/09 08:35:48;;;;;;;10.93;2.47;;;16.80;99.40;;;;;;5364941;26;20489;-36
2024/04/09 08:38:14;;;;;;;7.60;2.55;;;16.80;94.10;;;;;;5362076;26;20012;-39
2024/04/09 08:40:40;;;;;;;9.85;3.17;;;16.90;95.50;;;;;;5363887;26;20292;-37
2024/04/09 08:43:06;;;;;;;16.48;3.05;;;16.90;92.10;;;;;;5357224;26;20748;-42
2024/04/09 08:45:32;;;;;;;8.63;2.25;;;17.00;92.70;;;;;;5352726;26;20019;-39
2024/04/09 08:48:02;;;;;;;7.32;2.22;;;17.00;94.10;;;;;;5354630;26;20673;-37
2024/04/09 08:50:29;;;;;;;4.78;2.33;;;17.10;99.90;;;;;;5362893;26;20004;-38
2024/04/09 08:52:57;;;;;;;13.20;3.40;;;17.20;96.90;;;;;;5359476;26;20005;-40
2024/04/09 08:55:22;;;;;;;9.15;2.42;;;17.30;96.70;;;;;;5385263;26;20110;-34
2024/04/09 08:57:48;;;;;;;6.18;2.00;;;17.40;92.00;;;;;;5362788;26;20042;-39
2024/04/09 09:00:16;;;;;;;13.75;2.75;;;17.60;91.30;;;;;;5361735;26;20008;-42
2024/04/09 09:02:43;;;;;;;5.00;1.55;;;17.60;95.30;;;;;;5358070;26;20008;-40
2024/04/09 09:05:19;;;;;;;6.22;1.70;;;17.60;85.30;;;;;;5351218;26;20069;-40
2024/04/09 09:07:45;;;;;;;7.38;1.80;;;17.60;79.50;;;;;;5358408;26;20077;-40
2024/04/09 09:10:13;;;;;;;11.40;2.75;;;17.60;94.70;;;;;;5357362;26;20071;-39
2024/04/09 09:12:38;;;;;;;7.85;2.08;;;17.70;91.20;;;;;;5353135;26;20094;-41
2024/04/09 09:15:05;;;;;;;10.07;2.38;;;17.60;89.60;;;;;;5362878;26;19996;-41
2024/04/09 09:17:33;;;;;;;9.57;2.10;;;17.60;90.70;;;;;;5355382;26;19997;-42
2024/04/09 09:20:00;;;;;;;4.20;1.70;;;17.60;86.70;;;;;;5362280;26;19996;-38
2024/04/09 09:22:29;;;;;;;7.72;2.50;;;17.60;92.30;;;;;;5364181;26;20048;-41
2024/04/09 09:24:59;;;;;;;6.93;1.90;;;17.60;91.40;;;;;;5363931;26;20001;-39
2024/04/09 09:27:28;;;;;;;11.82;2.38;;;17.70;88.00;;;;;;5365133;26;19996;-42
2024/04/09 09:29:55;;;;;;;7.47;2.65;;;17.60;85.50;;;;;;5358576;26;20004;-41
2024/04/09 09:32:21;;;;;;;8.75;2.30;;;17.60;85.10;;;;;;5357746;26;20106;-37
2024/04/09 09:34:48;;;;;;;4.28;1.70;;;17.70;86.00;;;;;;5361545;26;19999;-40
2024/04/09 09:37:15;;;;;;;1.50;1.15;;;17.80;80.70;;;;;;5351913;26;20040;-42
2024/04/09 09:39:41;;;;;;;12.68;2.80;;;17.80;88.60;;;;;;5361852;26;19996;-38
2024/04/09 09:42:16;;;;;;;5.07;1.92;;;17.90;84.80;;;;;;5361195;26;20849;-39
2024/04/09 09:44:45;;;;;;;11.00;2.20;;;18.00;85.70;;;;;;5359171;26;20000;-39
2024/04/09 09:47:11;;;;;;;6.95;1.73;;;17.90;87.70;;;;;;5361705;26;20016;-40
2024/04/09 09:49:37;;;;;;;9.48;2.20;;;18.20;89.10;;;;;;5364214;26;20350;-39
2024/04/09 09:52:04;;;;;;;3.20;1.63;;;18.30;87.30;;;;;;5366278;26;20011;-38
2024/04/09 09:54:30;;;;;;;6.75;1.70;;;18.30;85.10;;;;;;5367166;26;20003;-42
2024/04/09 09:57:01;;;;;;;5.82;2.10;;;18.10;84.20;;;;;;5359899;26;20000;-40
2024/04/09 09:59:41;;;;;;;6.20;2.30;;;18.10;90.00;;;;;;5360108;26;20008;-35
2024/04/09 10:02:08;;;;;;;6.47;2.25;;;18.20;92.80;;;;;;5361561;26;20015;-36
2024/04/09 10:04:37;;;;;;;5.17;1.57;;;18.30;82.80;;;;;;5362769;26;20000;-34
2024/04/09 10:07:04;;;;;;;4.32;1.83;;;18.10;89.30;;;;;;5367058;26;20360;-34
2024/04/09 10:09:43;;;;;;;5.13;2.80;;;18.10;88.20;;;;;;5386948;26;19997;-33
2024/04/09 10:12:29;;;;;;;4.85;1.73;;;18.10;90.80;;;;;;5362122;26;20454;-33
2024/04/09 10:15:02;;;;;;;10.90;2.78;;;18.40;91.00;;;;;;5367453;26;20825;-36
2024/04/09 10:17:45;;;;;;;7.25;2.20;;;18.50;91.30;;;;;;5352429;26;20041;-35
2024/04/09 10:20:19;;;;;;;5.95;1.90;;;18.60;91.00;;;;;;5358296;26;20003;-33
2024/04/09 10:22:45;;;;;;;9.70;2.05;;;18.50;88.20;;;;;;5363608;26;20453;-32
2024/04/09 10:25:21;;;;;;;6.20;2.08;;;18.50;91.60;;;;;;5360325;26;20000;-33
2024/04/09 10:27:47;;;;;;;3.83;1.67;;;18.40;88.30;;;;;;5356702;26;20008;-33
2024/04/09 10:30:14;;;;;;;7.25;1.77;;;18.30;90.90;;;;;;5363024;26;20004;-32
2024/04/09 10:32:39;;;;;;;4.95;1.95;;;18.20;92.50;;;;;;5366768;26;19996;-38
2024/04/09 10:35:14;;;;;;;7.15;1.73;;;18.20;92.50;;;;;;5362910;26;20472;-32
2024/04/09 10:37:42;;;;;;;5.72;2.13;;;18.10;90.10;;;;;;5354092;26;20772;-36
2024/04/09 10:40:08;;;;;;;5.63;1.83;;;18.40;94.30;;;;;;5365565;26;20004;-36
2024/04/09 10:42:34;;;;;;;6.65;1.70;;;18.60;92.90;;;;;;5365441;26;20011;-34
2024/04/09 10:44:59;;;;;;;12.27;2.40;;;19.00;96.00;;;;;;5354495;26;20004;-33
2024/04/09 10:47:26;;;;;;;6.45;1.83;;;19.20;93.40;;;;;;5366461;26;20344;-34
2024/04/09 10:49:51;;;;;;;12.82;2.05;;;19.30;93.00;;;;;;5358440;26;20078;-32
2024/04/09 10:52:17;;;;;;;5.45;1.73;;;19.30;88.30;;;;;;5354203;26;20012;-32
2024/04/09 10:54:43;;;;;;;5.95;1.60;;;19.00;90.60;;;;;;5361251;26;19997;-33
2024/04/09 10:57:10;;;;;;;7.13;1.60;;;18.60;92.80;;;;;;5346113;26;20065;-35
2024/04/09 10:59:35;;;;;;;1.98;1.02;;;17.50;93.00;;;;;;5358397;26;20023;-33
2024/04/09 11:02:06;;;;;;;2.08;0.88;;;16.80;95.60;;;;;;5364409;26;20008;-32
2024/04/09 11:04:34;;;;;;;2.08;0.73;;;16.40;96.00;;;;;;5351775;26;20012;-35
2024/04/09 11:07:05;;;;;;;1.10;0.90;;;15.70;95.80;;;;;;5366289;26;20003;-32
2024/04/09 11:09:31;;;;;;;3.50;0.80;;;15.60;96.70;;;;;;5355384;26;20008;-40
2024/04/09 11:11:58;;;;;;;4.47;1.02;;;15.50;98.40;;;;;;5364208;26;20016;-41
2024/04/09 11:14:24;;;;;;;2.30;0.75;;;15.70;99.90;;;;;;5358535;26;20037;-38
2024/04/09 11:16:50;;;;;;;1.90;0.80;;;16.10;98.80;;;;;;5336398;26;20055;-39
2024/04/09 11:19:25;;;;;;;2.08;0.50;;;16.30;98.20;;;;;;5358903;26;19992;-39
2024/04/09 11:21:52;;;;;;;2.95;0.57;;;16.10;95.30;;;;;;5336975;26;20599;-39
2024/04/09 11:24:19;;;;;;;4.28;1.00;;;15.80;95.20;;;;;;5361753;26;20091;-41
2024/04/09 11:26:55;;;;;;;1.35;0.55;;;15.70;96.10;;;;;;5357036;26;20106;-40
2024/04/09 11:29:24;;;;;;;0.47;0.47;;;15.70;96.00;;;;;;5358015;26;20514;-37
2024/04/09 11:31:50;;;;;;;1.00;0.60;;;15.50;94.40;;;;;;5356911;26;20008;-41
2024/04/09 11:34:24;;;;;;;1.40;0.77;;;15.00;97.70;;;;;;5365968;26;20388;-40
2024/04/09 11:36:49;;;;;;;1.13;0.65;;;14.70;98.30;;;;;;5364725;26;20008;-39
2024/04/09 11:39:18;;;;;;;1.45;0.60;;;14.90;99.90;;;;;;5359554;26;20015;-33
2024/04/09 11:41:44;;;;;;;1.30;0.60;;;14.80;98.60;;;;;;5365094;26;20029;-33
2024/04/09 11:44:10;;;;;;;0.70;0.70;;;14.70;98.90;;;;;;5364822;26;20078;-33
2024/04/09 11:46:35;;;;;;;1.52;0.82;;;14.70;96.60;;;;;;5361195;26;20845;-36
2024/04/09 11:49:01;;;;;;;3.03;0.73;;;15.00;97.20;;;;;;5362947;26;20004;-34
2024/04/09 11:51:26;;;;;;;2.25;0.95;;;15.20;96.10;;;;;;5355674;26;20328;-34
2024/04/09 11:53:52;;;;;;;0.45;0.45;;;15.10;94.50;;;;;;5361904;26;20015;-33
2024/04/09 11:56:17;;;;;;;0.80;0.57;;;14.60;93.10;;;;;;5369486;26;19996;-35
2024/04/09 11:58:47;;;;;;;1.65;0.75;;;14.30;94.20;;;;;;5359554;26;20541;-34
2024/04/09 12:01:13;;;;;;;0.82;0.82;;;14.30;96.60;;;;;;5363739;26;20012;-35
2024/04/09 12:03:40;;;;;;;0.57;0.57;;;14.10;97.40;;;;;;5366168;26;19996;-40
2024/04/09 12:06:06;;;;;;;0.60;0.55;;;13.70;98.70;;;;;;5364278;26;20788;-34
2024/04/09 12:08:32;;;;;;;0.43;0.43;;;13.70;99.90;;;;;;5365981;26;20000;-33
2024/04/09 12:10:59;;;;;;;0.40;0.40;;;13.50;99.90;;;;;;5354691;26;20501;-33
2024/04/09 12:13:25;;;;;;;1.67;0.80;;;13.40;99.90;;;;;;5358407;26;19997;-37
2024/04/09 12:15:50;;;;;;;2.45;0.60;;;13.30;99.90;;;;;;5359386;26;20015;-36
2024/04/09 12:18:16;;;;;;;2.72;0.55;;;13.20;99.90;;;;;;5359029;26;20007;-34
2024/04/09 12:20:42;;;;;;;1.23;0.40;;;13.00;99.90;;;;;;5362394;26;19997;-34
2024/04/09 12:23:09;;;;;;;1.17;0.28;;;12.90;99.90;;;;;;5331950;26;20009;-35
2024/04/09 12:25:35;;;;;;;2.70;0.70;;;12.80;99.90;;;;;;5362907;26;20004;-32
2024/04/09 12:28:00;;;;;;;0.43;0.43;;;12.50;98.70;;;;;;5358937;26;20014;-33
2024/04/09 12:30:27;;;;;;;2.35;0.40;;;12.40;99.90;;;;;;5359696;26;20000;-34
2024/04/09 12:32:53;;;;;;;0.40;0.40;;;12.40;99.80;;;;;;5358728;26;20000;-37
2024/04/09 12:35:21;;;;;;;0.50;0.50;;;12.30;99.90;;;;;;5360198;26;20791;-32
2024/04/09 12:37:48;;;;;;;1.05;0.47;;;12.10;99.90;;;;;;5359716;26;20486;-33
2024/04/09 12:40:14;;;;;;;0.50;0.50;;;12.10;99.90;;;;;;5363597;26;20006;-35
2024/04/09 12:42:41;;;;;;;0.40;0.40;;;12.00;99.90;;;;;;5359133;26;20008;-38